Pagrindinis puslapis
METAR-TAF:

METAR-TAF

Oro uostai :

Tunisas, Tunisas

platuma: 36-50N, ilguma: 010-14E, Aukštis: 3 m

Dabartinis oras

Ataskaita buvo paskelbta 34 minutes, ne 22:00 UTC
Ramus vėjas
Temperatūra 12°C
Drėgmė 94%
Slėgis 1026 hPa
Matomumas 10 km arba daugiau
Išsisklaidę debesys ne aukštis 2300 ft

METAR: DTTA 072200Z 00000KT 9999 SCT023 12/11 Q1026

Laikas: 23:34 (22:34 UTC)

Prognozė

Ataskaita buvo paskelbta 5 valandos ir 34 minutes, ne 17:00 UTC
Prognozė galioja nuo 07 metu 18 UTC su 08 metu 18 UTC
Vėjas 10 kt iš Rytų/Šiaurės Rytų
Matomumas 10 km arba daugiau
Mažai debesys ne aukštis 3000 ft
Tapsmas
nuo 07 metu 19 UTC su 07 metu 21 UTC
Vėjas 3 kt iš Pietryčių
Tikimybė 30%
nuo 08 metu 04 UTC su 08 metu 07 UTC
Matomumas: 3000 m
rūkana
Tapsmas
nuo 08 metu 12 UTC su 08 metu 14 UTC
Vėjas 10 kt iš Rytų/Šiaurės Rytų

TAF: DTTA 071700Z 0718/0818 06010KT 9999 FEW030 BECMG 0719/0721 13003KT PROB30 0804/0807 3000 BR BECMG 0812/0814 06010KT

Orai ataskaitas ir orų prognozės (METAR, TAF).

turimą stotys yra geltonos ir raudonos taškus žemėlapyje.

Perkelti pele per norėdami pamatyti stoties vardą.

Tada spustelėkite, norėdami matyti oro stebėjimo ir prognozės.

Norėdami pakeisti žemėlapį: spustelėkite ant žalios mygtukų su juodo kryžiaus žemyn,; žalią mygtuką su brūkšneliu, jei norite nutolinti; arba žalių rodyklių gretimoms žemėlapius.


METAR-TAF: